Burton upon Trent, United Kingdom
Current Conditions -  °F | °C
As of 11:50 PM on Friday 24 Oct 2014 (Local Time) from EGNX Reporting Station
Few Clouds Few Clouds  
Wind Chill: 44°   Ceiling: Unl
Heat Index: 48°   Visibility: 6mi
Dew Point: 46°   Wind: 10mph
Humidity: 93%   Direction: 220°SW
Pressure: 29.94"   Gusts: NA
Location:  52.81°N, 1.64°W
Report Text: EGNX 242250Z 22009KT 9999 FEW032 09/08 Q1014
Loading
Personal Weather Stations






























Interactive Weather Map
Tropical Storm Tracking
New forecast layout! Learn more

10-Day Weather Forecast

Advertisements
Track Severe Weather on mobile